Time;durP1;ratioP1;P1;durP2;ratioP2;P2;SDS_P1;SDS_P2;PMS_P1;PMS_P2;Temp;Humidity;BMP_temperature;BMP_pressure;BME280_temperature;BME280_humidity;BME280_pressure;Samples;Min_cycle;Max_cycle;Signal;HPM_P1;HPM_P2
2024/02/09 00:04:46;;;;;;;;;;;;;;;9.62;100.00;93878.19;10477253;28;2338;-66
2024/02/09 00:09:57;;;;;;;;;;;;;;;9.59;100.00;93860.03;10462554;28;2319;-65
2024/02/09 00:15:06;;;;;;;;;;;;;;;9.59;100.00;93852.75;10478224;28;2052;-65
2024/02/09 00:20:10;;;;;;;;;;;;;;;9.59;100.00;93839.34;10484015;28;2039;-66
2024/02/09 00:25:35;;;;;;;;;;;;;;;9.67;100.00;93821.69;10478834;28;2160;-65
2024/02/09 00:30:40;;;;;;;;;;;;;;;9.55;100.00;93816.19;10480195;28;2103;-71
2024/02/09 00:35:44;;;;;;;;;;;;;;;9.58;100.00;93808.28;10465190;28;2394;-69
2024/02/09 00:40:51;;;;;;;;;;;;;;;9.50;100.00;93792.97;10462187;28;2130;-65
2024/02/09 00:46:02;;;;;;;;;;;;;;;9.52;100.00;93790.75;10461786;28;2130;-71
2024/02/09 00:51:06;;;;;;;;;;;;;;;9.51;100.00;93774.97;10462585;28;2164;-67
2024/02/09 00:56:10;;;;;;;;;;;;;;;9.48;100.00;93774.53;10456232;28;2270;-67
2024/02/09 01:01:16;;;;;;;;;;;;;;;9.53;100.00;93778.13;10476284;28;2025;-67
2024/02/09 01:06:29;;;;;;;;;;;;;;;9.52;100.00;93758.56;10474483;28;2059;-67
2024/02/09 01:11:41;;;;;;;;;;;;;;;9.56;100.00;93772.94;10474961;28;2336;-67
2024/02/09 03:04:18;;;;;;;;;;;;;;;9.23;100.00;93680.66;10475270;28;2036;-68
2024/02/09 03:04:22;;;;;;;;;;;;;;;9.04;100.00;93665.69;10476683;28;2083;-65
2024/02/09 03:09:26;;;;;;;;;;;;;;;9.03;100.00;93649.91;10470657;28;2515;-68
2024/02/09 03:14:33;;;;;;;;;;;;;;;8.97;100.00;93638.56;10471373;28;2396;-68
2024/02/09 03:19:38;;;;;;;;;;;;;;;9.02;100.00;93646.44;10476924;28;2130;-66
2024/02/09 03:24:44;;;;;;;;;;;;;;;8.99;100.00;93632.88;10453370;28;2065;-67
2024/02/09 03:29:50;;;;;;;;;;;;;;;8.87;100.00;93630.84;10467581;28;2058;-71
2024/02/09 03:34:57;;;;;;;;;;;;;;;8.90;100.00;93640.91;10437399;28;2119;-66
2024/02/09 03:40:00;;;;;;;;;;;;;;;8.97;100.00;93641.25;10469650;28;2434;-66
2024/02/09 03:45:06;;;;;;;;;;;;;;;9.04;100.00;93657.66;10452659;28;2164;-67
2024/02/09 03:50:15;;;;;;;;;;;;;;;9.10;100.00;93669.78;10469757;28;2491;-67
2024/02/09 03:55:19;;;;;;;;;;;;;;;9.10;100.00;93648.34;10454786;28;2064;-65
2024/02/09 04:00:28;;;;;;;;;;;;;;;9.19;100.00;93648.34;10466831;28;2008;-66
2024/02/09 04:05:32;;;;;;;;;;;;;;;9.25;100.00;93630.19;10457604;28;2091;-66
2024/02/09 04:10:40;;;;;;;;;;;;;;;9.20;100.00;93623.88;10469260;28;2048;-66
2024/02/09 04:15:52;;;;;;;;;;;;;;;9.11;100.00;93633.84;10469214;28;2250;-67
2024/02/09 04:20:59;;;;;;;;;;;;;;;9.21;100.00;93640.75;10467988;28;2112;-66
2024/02/09 04:26:02;;;;;;;;;;;;;;;9.21;100.00;93636.19;10452332;28;2103;-66
2024/02/09 04:31:08;;;;;;;;;;;;;;;9.18;100.00;93631.47;10462282;28;2138;-65
2024/02/09 04:36:11;;;;;;;;;;;;;;;9.26;100.00;93631.78;10469763;28;2087;-66
2024/02/09 04:41:15;;;;;;;;;;;;;;;9.24;100.00;93621.38;10467221;28;2343;-66
2024/02/09 04:46:23;;;;;;;;;;;;;;;9.31;100.00;93620.88;10468391;28;2039;-66
2024/02/09 04:51:28;;;;;;;;;;;;;;;9.29;100.00;93610.50;10475585;28;2056;-66
2024/02/09 04:56:32;;;;;;;;;;;;;;;9.11;100.00;93614.28;10475015;28;2172;-67
2024/02/09 05:01:39;;;;;;;;;;;;;;;9.02;100.00;93603.56;10458695;28;2056;-66
2024/02/09 05:06:45;;;;;;;;;;;;;;;8.94;100.00;93605.13;10478129;28;2188;-69
2024/02/09 05:11:52;;;;;;;;;;;;;;;8.82;100.00;93602.31;10479208;28;2172;-73
2024/02/09 05:17:00;;;;;;;;;;;;;;;8.80;100.00;93595.69;10478539;28;2185;-70
2024/02/09 05:22:06;;;;;;;;;;;;;;;8.76;100.00;93592.84;10480559;28;2387;-67
2024/02/09 05:27:10;;;;;;;;;;;;;;;8.87;100.00;93588.75;10478322;28;2075;-68
2024/02/09 05:32:21;;;;;;;;;;;;;;;8.93;100.00;93576.78;10474530;28;2000;-70
2024/02/09 05:37:25;;;;;;;;;;;;;;;8.91;100.00;93578.19;10458708;28;2201;-69
2024/02/09 05:42:38;;;;;;;;;;;;;;;8.90;100.00;93585.44;10475174;28;2052;-66
2024/02/09 05:47:42;;;;;;;;;;;;;;;8.96;100.00;93591.41;10476661;28;2268;-67
2024/02/09 05:52:45;;;;;;;;;;;;;;;9.02;100.00;93584.78;10475575;28;2165;-65
2024/02/09 05:57:55;;;;;;;;;;;;;;;8.99;100.00;93593.47;10468850;28;2000;-65
2024/02/09 06:03:04;;;;;;;;;;;;;;;9.05;100.00;93589.53;10472427;28;2815;-68
2024/02/09 06:08:13;;;;;;;;;;;;;;;9.08;100.00;93588.09;10456633;28;2085;-65
2024/02/09 06:13:17;;;;;;;;;;;;;;;9.08;100.00;93588.88;10471621;28;2126;-66
2024/02/09 06:18:24;;;;;;;;;;;;;;;9.04;100.00;93590.66;10461781;28;2107;-66
2024/02/09 06:23:27;;;;;;;;;;;;;;;8.92;100.00;93593.97;10440138;28;2111;-66
2024/02/09 06:28:30;;;;;;;;;;;;;;;8.77;100.00;93598.97;10471500;28;2068;-73
2024/02/09 06:33:33;;;;;;;;;;;;;;;8.68;100.00;93606.25;10475417;28;2099;-73
2024/02/09 06:38:36;;;;;;;;;;;;;;;8.64;100.00;93606.84;10475145;28;1992;-69
2024/02/09 06:43:49;;;;;;;;;;;;;;;8.62;100.00;93598.34;10477295;28;2926;-68
2024/02/09 06:48:56;;;;;;;;;;;;;;;8.70;100.00;93614.75;10474298;28;2020;-75
2024/02/09 06:54:00;;;;;;;;;;;;;;;8.75;100.00;93615.38;10476084;28;2109;-67
2024/02/09 06:59:06;;;;;;;;;;;;;;;8.84;100.00;93624.22;10474891;28;2295;-67
2024/02/09 07:04:16;;;;;;;;;;;;;;;8.88;100.00;93629.72;10456483;28;2265;-66
2024/02/09 07:09:20;;;;;;;;;;;;;;;8.99;100.00;93614.91;10469767;28;2101;-68
2024/02/09 07:14:37;;;;;;;;;;;;;;;9.02;100.00;93616.94;10469402;28;2063;-70
2024/02/09 07:19:40;;;;;;;;;;;;;;;9.11;100.00;93620.44;10455465;28;2146;-67
2024/02/09 07:24:45;;;;;;;;;;;;;;;9.21;100.00;93630.81;10436984;28;2208;-67
2024/02/09 07:29:48;;;;;;;;;;;;;;;9.25;100.00;93624.84;10465275;28;2016;-68
2024/02/09 07:34:54;;;;;;;;;;;;;;;9.21;100.00;93625.44;10471669;28;2026;-67
2024/02/09 07:39:59;;;;;;;;;;;;;;;9.37;100.00;93616.94;10471902;28;2563;-67
2024/02/09 07:45:03;;;;;;;;;;;;;;;9.46;100.00;93615.81;10473957;28;2118;-66
2024/02/09 07:50:16;;;;;;;;;;;;;;;9.61;100.00;93609.16;10471295;28;2047;-72
2024/02/09 07:55:21;;;;;;;;;;;;;;;9.83;100.00;93604.66;10471749;28;2180;-69
2024/02/09 08:00:27;;;;;;;;;;;;;;;9.93;100.00;93605.09;10467762;28;2122;-69
2024/02/09 08:05:31;;;;;;;;;;;;;;;9.98;100.00;93609.50;10469708;28;1970;-73
2024/02/09 08:10:35;;;;;;;;;;;;;;;9.77;100.00;93619.34;10450267;28;2104;-70
2024/02/09 08:15:38;;;;;;;;;;;;;;;9.97;100.00;93635.53;10468869;28;2006;-67
2024/02/09 08:20:41;;;;;;;;;;;;;;;9.88;100.00;93625.97;10474263;28;2114;-68
2024/02/09 08:25:47;;;;;;;;;;;;;;;9.80;100.00;93618.72;10475461;28;2486;-70
2024/02/09 08:30:54;;;;;;;;;;;;;;;10.01;100.00;93619.59;10476476;28;2148;-67
2024/02/09 08:35:57;;;;;;;;;;;;;;;10.01;100.00;93606.19;10463610;28;2034;-66
2024/02/09 08:41:01;;;;;;;;;;;;;;;9.97;100.00;93597.19;10471938;28;2102;-67
2024/02/09 08:46:04;;;;;;;;;;;;;;;10.05;100.00;93599.03;10475590;28;2086;-67
2024/02/09 08:51:11;;;;;;;;;;;;;;;10.29;100.00;93587.75;10474717;28;2162;-67
2024/02/09 08:56:17;;;;;;;;;;;;;;;10.47;100.00;93583.84;10471962;28;2311;-72
2024/02/09 09:01:21;;;;;;;;;;;;;;;10.86;100.00;93586.41;10473471;28;2110;-68
2024/02/09 09:06:27;;;;;;;;;;;;;;;11.52;100.00;93603.41;10474825;28;2257;-68
2024/02/09 09:11:30;;;;;;;;;;;;;;;11.61;100.00;93598.72;10457307;28;2379;-69
2024/02/09 09:16:39;;;;;;;;;;;;;;;11.75;100.00;93603.78;10440146;28;2051;-67
2024/02/09 09:21:42;;;;;;;;;;;;;;;11.59;100.00;93605.56;10474578;28;2073;-69
2024/02/09 09:26:45;;;;;;;;;;;;;;;11.88;100.00;93589.25;10474235;28;2055;-72
2024/02/09 09:31:49;;;;;;;;;;;;;;;11.84;100.00;93587.59;10469632;28;2087;-66
2024/02/09 09:36:52;;;;;;;;;;;;;;;12.13;100.00;93583.91;10453491;28;2069;-67
2024/02/09 09:42:09;;;;;;;;;;;;;;;12.09;100.00;93564.94;10461005;28;2116;-68
2024/02/09 09:47:13;;;;;;;;;;;;;;;12.29;100.00;93568.66;10472825;28;2169;-67
2024/02/09 09:52:19;;;;;;;;;;;;;;;12.48;100.00;93564.59;10470774;28;2218;-67
2024/02/09 09:57:24;;;;;;;;;;;;;;;12.94;100.00;93560.56;10472953;28;2326;-70
2024/02/09 10:02:28;;;;;;;;;;;;;;;12.90;100.00;93541.56;10471839;28;2091;-68
2024/02/09 10:07:32;;;;;;;;;;;;;;;12.91;100.00;93545.81;10452597;28;2128;-67
2024/02/09 10:12:42;;;;;;;;;;;;;;;13.10;100.00;93550.59;10440434;28;2060;-67
2024/02/09 10:17:48;;;;;;;;;;;;;;;13.53;100.00;93554.50;10470405;28;2209;-67
2024/02/09 10:22:54;;;;;;;;;;;;;;;13.81;100.00;93549.06;10472580;28;2000;-67
2024/02/09 10:27:56;;;;;;;;;;;;;;;13.89;100.00;93550.00;10473538;28;2215;-66
2024/02/09 10:32:59;;;;;;;;;;;;;;;14.14;100.00;93550.63;10469999;28;2008;-67
2024/02/09 10:38:11;;;;;;;;;;;;;;;13.85;100.00;93533.72;10471202;28;2103;-67
2024/02/09 10:43:14;;;;;;;;;;;;;;;13.29;100.00;93525.72;10452446;28;2536;-67
2024/02/09 10:48:20;;;;;;;;;;;;;;;13.77;100.00;93515.78;10466903;28;2055;-66
2024/02/09 10:53:30;;;;;;;;;;;;;;;13.99;100.00;93509.75;10469433;28;2255;-66
2024/02/09 10:58:38;;;;;;;;;;;;;;;13.69;100.00;93503.22;10449569;28;2056;-66
2024/02/09 11:03:44;;;;;;;;;;;;;;;13.55;100.00;93500.97;10467412;28;2373;-65
2024/02/09 11:08:47;;;;;;;;;;;;;;;13.18;100.00;93497.66;10465522;28;2162;-67
2024/02/09 11:13:50;;;;;;;;;;;;;;;13.50;100.00;93480.41;10466925;28;2068;-67
2024/02/09 11:19:02;;;;;;;;;;;;;;;13.65;100.00;93486.94;10469017;28;2067;-65
2024/02/09 11:24:09;;;;;;;;;;;;;;;13.71;100.00;93476.66;10469724;28;2336;-66
2024/02/09 11:29:22;;;;;;;;;;;;;;;13.56;100.00;93469.34;10464317;28;2338;-66
2024/02/09 11:34:26;;;;;;;;;;;;;;;13.65;100.00;93461.84;10466064;28;2127;-71
2024/02/09 11:39:34;;;;;;;;;;;;;;;13.52;100.00;93453.84;10463070;28;2114;-72
2024/02/09 11:44:41;;;;;;;;;;;;;;;13.43;100.00;93447.84;10447462;28;2015;-72
2024/02/09 11:49:50;;;;;;;;;;;;;;;13.53;100.00;93433.81;10467698;28;2175;-65
2024/02/09 11:54:57;;;;;;;;;;;;;;;13.59;100.00;93418.16;10467240;28;2299;-67
2024/02/09 12:00:05;;;;;;;;;;;;;;;13.66;100.00;93421.00;10466766;28;2071;-67
2024/02/09 12:05:09;;;;;;;;;;;;;;;13.29;100.00;93411.59;10453483;28;2494;-67
2024/02/09 12:10:12;;;;;;;;;;;;;;;13.41;100.00;93406.13;10465245;28;2232;-70
2024/02/09 12:15:18;;;;;;;;;;;;;;;13.56;100.00;93413.47;10464525;28;2015;-67
2024/02/09 12:20:32;;;;;;;;;;;;;;;13.87;100.00;93434.25;10474066;28;2056;-68
2024/02/09 12:25:38;;;;;;;;;;;;;;;13.33;100.00;93436.78;10469159;28;2064;-68
2024/02/09 12:30:43;;;;;;;;;;;;;;;13.42;100.00;93424.69;10465199;28;2125;-68
2024/02/09 12:35:50;;;;;;;;;;;;;;;13.52;100.00;93429.56;10450934;28;2147;-69
2024/02/09 12:41:00;;;;;;;;;;;;;;;13.46;100.00;93414.75;10449253;28;2160;-67
2024/02/09 12:46:11;;;;;;;;;;;;;;;13.48;100.00;93407.09;10463427;28;2134;-68
2024/02/09 12:51:14;;;;;;;;;;;;;;;13.17;100.00;93398.97;10452090;28;2103;-69
2024/02/09 12:56:19;;;;;;;;;;;;;;;13.36;100.00;93388.31;10467528;28;2223;-68
2024/02/09 13:01:22;;;;;;;;;;;;;;;13.41;100.00;93382.63;10448039;28;2953;-69
2024/02/09 13:06:35;;;;;;;;;;;;;;;13.32;100.00;93384.72;10465455;28;2008;-67
2024/02/09 13:11:56;;;;;;;;;;;;;;;13.40;100.00;93389.16;10468993;28;2019;-69
2024/02/09 13:17:04;;;;;;;;;;;;;;;13.33;100.00;93389.00;10451723;28;2039;-69
2024/02/09 13:22:15;;;;;;;;;;;;;;;13.56;100.00;93375.66;10472461;28;2166;-67
2024/02/09 13:27:24;;;;;;;;;;;;;;;12.99;100.00;93372.34;10470768;28;1985;-71
2024/02/09 13:32:27;;;;;;;;;;;;;;;12.99;100.00;93358.84;10457113;28;2110;-69
2024/02/09 13:37:32;;;;;;;;;;;;;;;12.87;100.00;93350.84;10472405;28;2087;-70
2024/02/09 13:42:45;;;;;;;;;;;;;;;12.88;100.00;93341.63;10453240;28;2303;-68
2024/02/09 13:47:51;;;;;;;;;;;;;;;13.12;100.00;93337.19;10471560;28;2153;-70
2024/02/09 13:52:57;;;;;;;;;;;;;;;12.94;100.00;93350.22;10453198;28;2044;-68
2024/02/09 13:58:01;;;;;;;;;;;;;;;12.97;100.00;93344.91;10473411;28;2287;-68
2024/02/09 14:03:06;;;;;;;;;;;;;;;12.97;100.00;93331.44;10458567;28;2163;-67
2024/02/09 14:08:16;;;;;;;;;;;;;;;12.75;100.00;93326.66;10473781;28;2190;-68
2024/02/09 14:13:21;;;;;;;;;;;;;;;12.71;100.00;93331.16;10451759;28;2189;-67
2024/02/09 14:18:35;;;;;;;;;;;;;;;12.87;100.00;93334.66;10475619;28;2195;-68
2024/02/09 14:23:40;;;;;;;;;;;;;;;12.77;100.00;93329.00;10469420;28;2290;-68
2024/02/09 14:28:49;;;;;;;;;;;;;;;12.62;100.00;93312.47;10468242;28;2031;-69
2024/02/09 14:33:58;;;;;;;;;;;;;;;12.64;100.00;93312.09;10472178;28;2055;-68
2024/02/09 14:39:02;;;;;;;;;;;;;;;12.40;100.00;93321.09;10471891;28;2048;-70
2024/02/09 14:44:07;;;;;;;;;;;;;;;12.52;100.00;93315.66;10468814;28;2323;-72
2024/02/09 14:49:11;;;;;;;;;;;;;;;12.44;100.00;93314.69;10466542;28;2059;-68
2024/02/09 14:54:15;;;;;;;;;;;;;;;12.48;100.00;93319.41;10469243;28;2056;-68
2024/02/09 14:59:25;;;;;;;;;;;;;;;12.36;100.00;93315.63;10464946;28;2079;-67
2024/02/09 15:04:39;;;;;;;;;;;;;;;12.30;100.00;93322.38;10468218;28;2461;-69
2024/02/09 15:09:42;;;;;;;;;;;;;;;12.23;100.00;93313.34;10467200;28;2091;-70
2024/02/09 15:14:48;;;;;;;;;;;;;;;12.20;100.00;93319.41;10462426;28;2126;-66
2024/02/09 15:19:53;;;;;;;;;;;;;;;12.11;100.00;93314.94;10464746;28;2129;-68
2024/02/09 15:24:59;;;;;;;;;;;;;;;11.98;100.00;93299.19;10452534;28;2266;-68
2024/02/09 15:30:12;;;;;;;;;;;;;;;11.93;100.00;93307.50;10465399;28;2130;-71
2024/02/09 15:35:19;;;;;;;;;;;;;;;11.83;100.00;93312.25;10465516;28;2079;-75
2024/02/09 15:40:27;;;;;;;;;;;;;;;11.83;100.00;93306.88;10467100;28;2337;-74
2024/02/09 15:45:29;;;;;;;;;;;;;;;11.77;100.00;93308.19;10457800;28;2185;-71
2024/02/09 15:50:34;;;;;;;;;;;;;;;11.76;100.00;93314.69;10463672;28;2075;-68
2024/02/09 15:55:37;;;;;;;;;;;;;;;11.67;100.00;93299.81;10468074;28;2186;-69
2024/02/09 16:00:46;;;;;;;;;;;;;;;11.59;100.00;93298.81;10455393;28;2173;-72
2024/02/09 16:05:55;;;;;;;;;;;;;;;11.53;100.00;93294.78;10469172;28;3025;-66
2024/02/09 16:11:00;;;;;;;;;;;;;;;11.47;100.00;93294.22;10469506;28;2197;-65
2024/02/09 16:16:07;;;;;;;;;;;;;;;11.37;100.00;93292.78;10465910;28;2003;-65
2024/02/09 16:21:12;;;;;;;;;;;;;;;11.34;100.00;93298.84;10469230;28;2054;-68
2024/02/09 16:26:16;;;;;;;;;;;;;;;11.29;100.00;93299.06;10465908;28;2338;-66
2024/02/09 16:31:26;;;;;;;;;;;;;;;11.23;100.00;93305.81;10463260;28;2071;-66
2024/02/09 16:36:40;;;;;;;;;;;;;;;11.16;100.00;93302.91;10464860;28;2153;-67
2024/02/09 16:41:45;;;;;;;;;;;;;;;11.09;100.00;93313.44;10467179;28;2040;-66
2024/02/09 16:47:05;;;;;;;;;;;;;;;11.13;100.00;93327.75;10468474;28;2040;-66
2024/02/09 16:52:13;;;;;;;;;;;;;;;11.08;100.00;93336.84;10473156;28;2059;-66
2024/02/09 16:57:21;;;;;;;;;;;;;;;11.09;100.00;93334.94;10469305;28;2235;-66
2024/02/09 17:02:31;;;;;;;;;;;;;;;10.94;100.00;93320.28;10460215;28;2123;-65
2024/02/09 17:07:39;;;;;;;;;;;;;;;10.76;100.00;93322.38;10460590;28;2072;-66
2024/02/09 17:12:45;;;;;;;;;;;;;;;10.66;100.00;93314.72;10476454;28;2044;-67
2024/02/09 17:17:50;;;;;;;;;;;;;;;10.65;100.00;93309.69;10478530;28;2035;-66
2024/02/09 17:22:56;;;;;;;;;;;;;;;10.58;100.00;93310.25;10457209;28;2356;-71
2024/02/09 17:28:00;;;;;;;;;;;;;;;10.60;100.00;93304.53;10474910;28;2091;-68
2024/02/09 17:33:03;;;;;;;;;;;;;;;10.45;100.00;93301.38;10477606;28;2103;-68
2024/02/09 17:38:10;;;;;;;;;;;;;;;10.43;100.00;93292.06;10463298;28;2126;-67
2024/02/09 17:43:19;;;;;;;;;;;;;;;10.33;100.00;93317.47;10474511;28;2083;-66
2024/02/09 17:48:25;;;;;;;;;;;;;;;10.37;100.00;93309.50;10484066;28;2123;-68
2024/02/09 17:53:29;;;;;;;;;;;;;;;10.22;100.00;93282.16;10492599;28;2059;-68
2024/02/09 17:58:32;;;;;;;;;;;;;;;10.24;100.00;93296.06;10486997;28;2580;-68
2024/02/09 18:03:39;;;;;;;;;;;;;;;10.22;100.00;93279.47;10489692;28;2094;-69
2024/02/09 18:08:43;;;;;;;;;;;;;;;10.11;100.00;93278.31;10491628;28;1993;-68
2024/02/09 18:13:48;;;;;;;;;;;;;;;10.17;100.00;93284.25;10469883;28;2208;-75
2024/02/09 18:18:55;;;;;;;;;;;;;;;10.15;100.00;93265.81;10491201;28;2118;-71
2024/02/09 18:24:01;;;;;;;;;;;;;;;10.09;100.00;93250.25;10493093;28;2211;-69
2024/02/09 18:29:08;;;;;;;;;;;;;;;9.93;100.00;93242.03;10497634;28;2113;-69
2024/02/09 18:34:11;;;;;;;;;;;;;;;9.93;100.00;93242.81;10478644;28;2251;-68
2024/02/09 18:39:19;;;;;;;;;;;;;;;9.95;100.00;93266.63;10489635;28;2161;-68
2024/02/09 18:44:23;;;;;;;;;;;;;;;9.98;100.00;93264.06;10475701;28;2055;-68
2024/02/09 18:49:36;;;;;;;;;;;;;;;9.91;100.00;93260.34;10474141;28;1961;-68
2024/02/09 18:54:41;;;;;;;;;;;;;;;9.94;100.00;93259.72;10481231;28;2292;-69
2024/02/09 18:59:45;;;;;;;;;;;;;;;9.96;100.00;93257.47;10475553;28;2051;-69
2024/02/09 19:10:35;;;;;;;;;;;;;;;9.86;100.00;93244.44;10482732;28;1889;-69
2024/02/09 19:15:43;;;;;;;;;;;;;;;9.84;100.00;93230.59;10481791;28;2104;-68
2024/02/09 19:20:46;;;;;;;;;;;;;;;9.75;100.00;93215.38;10473043;28;2003;-69
2024/02/09 19:25:57;;;;;;;;;;;;;;;9.59;100.00;93209.03;10486645;28;1929;-71
2024/02/09 19:31:05;;;;;;;;;;;;;;;9.50;100.00;93208.34;10489837;28;2031;-70
2024/02/09 19:36:19;;;;;;;;;;;;;;;9.50;100.00;93205.66;10476541;28;2189;-69
2024/02/09 19:41:25;;;;;;;;;;;;;;;9.38;100.00;93192.97;10494225;28;2003;-69
2024/02/09 19:46:32;;;;;;;;;;;;;;;9.28;100.00;93192.59;10491614;28;1947;-68
2024/02/09 19:51:54;;;;;;;;;;;;;;;9.30;100.00;93177.75;10482812;28;2841;-70
2024/02/09 19:57:06;;;;;;;;;;;;;;;9.22;100.00;93178.59;10473194;28;2274;-73
2024/02/09 20:02:18;;;;;;;;;;;;;;;9.23;100.00;93172.16;10491491;28;2059;-71
2024/02/09 20:07:42;;;;;;;;;;;;;;;9.18;100.00;93170.44;10484725;28;1925;-67
2024/02/09 20:12:50;;;;;;;;;;;;;;;9.14;100.00;93184.81;10489832;28;1890;-67
2024/02/09 20:17:54;;;;;;;;;;;;;;;9.20;100.00;93173.56;10487558;28;2039;-68
2024/02/09 20:23:05;;;;;;;;;;;;;;;9.11;100.00;93172.88;10500077;28;1974;-70
2024/02/09 20:28:14;;;;;;;;;;;;;;;9.09;100.00;93161.66;10499790;28;2071;-67
2024/02/09 20:33:21;;;;;;;;;;;;;;;9.01;100.00;93165.19;10497814;28;2023;-67
2024/02/09 20:38:25;;;;;;;;;;;;;;;9.02;100.00;93171.34;10497140;28;2122;-68
2024/02/09 20:43:31;;;;;;;;;;;;;;;9.01;100.00;93180.50;10494376;28;1898;-67
2024/02/09 20:48:38;;;;;;;;;;;;;;;9.04;100.00;93169.94;10498824;28;3173;-67
2024/02/09 20:53:46;;;;;;;;;;;;;;;8.92;100.00;93156.47;10493111;28;2083;-66
2024/02/09 20:58:51;;;;;;;;;;;;;;;8.97;100.00;93188.41;10494643;28;2053;-67
2024/02/09 21:03:58;;;;;;;;;;;;;;;9.06;100.00;93167.69;10503078;28;1898;-69
2024/02/09 21:09:05;;;;;;;;;;;;;;;9.13;100.00;93148.41;10492725;28;2086;-67
2024/02/09 21:14:18;;;;;;;;;;;;;;;9.00;100.00;93174.34;10473029;28;2122;-67
2024/02/09 21:19:26;;;;;;;;;;;;;;;9.07;100.00;93161.22;10498917;28;2220;-66
2024/02/09 21:24:34;;;;;;;;;;;;;;;9.05;100.00;93181.44;10494701;28;1981;-68
2024/02/09 21:29:41;;;;;;;;;;;;;;;9.14;100.00;93160.69;10488113;28;2904;-67
2024/02/09 21:34:51;;;;;;;;;;;;;;;8.99;100.00;93177.38;10502451;28;2067;-66
2024/02/09 21:39:56;;;;;;;;;;;;;;;9.08;100.00;93160.09;10485848;28;2122;-67
2024/02/09 21:45:01;;;;;;;;;;;;;;;9.04;100.00;93143.13;10489029;28;2059;-67
2024/02/09 21:50:06;;;;;;;;;;;;;;;8.95;100.00;93142.41;10487716;28;2075;-68
2024/02/09 21:55:11;;;;;;;;;;;;;;;8.94;100.00;93133.56;10490603;28;2317;-67
2024/02/09 22:00:18;;;;;;;;;;;;;;;8.86;100.00;93125.63;10493273;28;2004;-67
2024/02/09 22:05:24;;;;;;;;;;;;;;;8.80;100.00;93116.22;10491252;28;1996;-66
2024/02/09 22:10:28;;;;;;;;;;;;;;;8.70;100.00;93116.59;10486363;28;2984;-70
2024/02/09 22:15:35;;;;;;;;;;;;;;;8.59;100.00;93110.84;10493340;28;1960;-67
2024/02/09 22:20:42;;;;;;;;;;;;;;;8.54;100.00;93106.47;10490923;28;1996;-66
2024/02/09 22:25:54;;;;;;;;;;;;;;;8.42;100.00;93101.03;10485945;28;1906;-65
2024/02/09 22:30:58;;;;;;;;;;;;;;;8.32;100.00;93112.06;10483475;28;2266;-66
2024/02/09 22:36:03;;;;;;;;;;;;;;;8.34;100.00;93116.00;10462910;28;2103;-68
2024/02/09 22:41:17;;;;;;;;;;;;;;;8.27;100.00;93121.09;10488129;28;1957;-67
2024/02/09 22:46:21;;;;;;;;;;;;;;;8.26;100.00;93118.72;10485936;28;2008;-68
2024/02/09 22:51:26;;;;;;;;;;;;;;;8.21;100.00;93114.34;10487666;28;2696;-67
2024/02/09 22:56:30;;;;;;;;;;;;;;;8.24;100.00;93118.25;10465961;28;1987;-66
2024/02/09 23:01:36;;;;;;;;;;;;;;;8.21;100.00;93121.59;10484121;28;2115;-67
2024/02/09 23:06:48;;;;;;;;;;;;;;;8.16;100.00;93121.78;10469100;27;1991;-66
2024/02/09 23:11:50;;;;;;;;;;;;;;;8.08;100.00;93124.19;10421133;28;1960;-68
2024/02/09 23:16:53;;;;;;;;;;;;;;;8.16;100.00;93124.44;10422759;28;2176;-67
2024/02/09 23:21:56;;;;;;;;;;;;;;;8.12;100.00;93129.66;10425520;28;1985;-66
2024/02/09 23:27:00;;;;;;;;;;;;;;;8.11;100.00;93122.72;10421417;28;1985;-66
2024/02/09 23:32:04;;;;;;;;;;;;;;;8.05;100.00;93116.78;10422667;28;2011;-67
2024/02/09 23:37:07;;;;;;;;;;;;;;;7.94;100.00;93123.59;10429285;28;1990;-66
2024/02/09 23:42:10;;;;;;;;;;;;;;;7.95;100.00;93130.53;10419608;28;2141;-66
2024/02/09 23:47:14;;;;;;;;;;;;;;;7.79;100.00;93121.44;10419530;28;2741;-65
2024/02/09 23:52:18;;;;;;;;;;;;;;;7.64;100.00;93127.34;10424708;28;1992;-66
2024/02/09 23:57:20;;;;;;;;;;;;;;;7.56;100.00;93129.69;10419387;28;2082;-67
